Aviation Digital Data Service (ADDS)

Output produced by METARs form (0505 UTC 21 September 2017)
found at http://www.aviationweather.gov/adds/metars/
 
FTTJ 210400Z 23002KT CAVOK 26/23 Q1010 NOSIG
TAF FTTJ 202300Z 2100/2206 VRB03KT 9999 FEW030 
     BECMG 2108/2110 18008KT 
     TEMPO 2115/2121 TS FEW040CB
       
FTTA 210400Z 00000KT 9999 FEW020 24/23 Q1012